North Platte, NE (69101)

8:05 PM CDT on July 10, 2014 (GMT -0500)
West Central (KNENORTH6) Elev 2818 ft | 41.14 °N, 100.79 °W | Change Station

Current weather conditions updated 14 minutes ago

Clear
Clear
87.4 °F
Feels Like 91 °F
N
7.8
Wind Variable Wind from West

Tomorrow is forecast to be nearly the same temperature as today. A few thunderstorms possible tomorrow night.

Today
High -- | Low -- °F
--% Chance of Precip.
Yesterday
High -- | Low -- °F
Precip. -- in
6:19 AM 9:16 PM
Waxing Gibbous, 97% visible
Pressure 29.80 in
Visibility 10.0 miles
Clouds Clear
Heat Index 91 °F
Dew Point 68 °F
Humidity 53%
Rainfall 0.00 in
Snow Depth Not available.
UV 1 out of 12
Pollen 4.80 out of 12
Air Quality Not available.
Flu Activity Sporadic
METAR KLBF 110053Z AUTO 17013G17KT 10SM CLR 29/18 A2988 RMK AO2 SLP089 T02940178

More Conditions Fewer Conditions

Pressure 29.80 in
Visibility 10.0 miles
Clouds Clear
Heat Index 91 °F
Dew Point 68 °F
Humidity 53%
Rainfall 0.00 in
Snow Depth Not available.
UV 1 out of 12
Pollen 4.80 out of 12
Air Quality Not available.
Flu Activity Sporadic
METAR KLBF 110053Z AUTO 17013G17KT 10SM CLR 29/18 A2988 RMK AO2 SLP089 T02940178

More Conditions Fewer Conditions

10-Day Weather Forecast

Almanac

Astronomy

Jul. 10, 2014 Rise Set
Actual Time 6:19 AM CDT 9:16 PM CDT
Civil Twilight 5:46 AM CDT 9:49 PM CDT
Nautical Twilight 5:04 AM CDT 10:31 PM CDT
Astronomical Twilight 4:15 AM CDT 11:20 PM CDT
Moon 7:31 PM CDT (7/10) 4:33 AM CDT (7/10)
Length of Visible Light 16h 03m
Length of Day
14h 57m
Tomorrow will be 1m 11s shorter.
Waxing Gibbous, 97% of the Moon is Illuminated
Today
Waxing Gibbous
Jul 12
Full
Jul 18
Last Quarter
Jul 26
New
Aug 3
First Quarter

Today's Extremes

State Highs State Lows

Community

WunderPhotos

Upload Photos

1,732,320 photos uploaded!

Nearby

Snow Depth

Station Depth Elevation
No new snow has been reported.

Earthquake Activity

City Distance Mag. Time & Date
No recent earthquake activity has been reported nearby.
Minimum magnitude displayed is 2.5.

Coastal Water Temperatures

Place Temperature
No Stations Reporting

Nearby Weather Stations

Station Location Temp. Heat Index Dew Point Humidity Wind Precip. Elev Updated Type
West Central, North Platte, NE 87.4 °F 91 °F 68 °F 53% West  at  7.8 mph - / hr 2818 ft 7:50 PM CDT Normal
W0AVM, North Platte, NE 84.7 °F 85 °F 60 °F 44% ESE  at  7.4 mph 0.00 in / hr 2805 ft 8:04 PM CDT Rapid Fire
Indian Hills, North Platte, NE 87.3 °F 90 °F 66 °F 49% SE  at  10.7 mph 0.00 in / hr 2835 ft 8:04 PM CDT Normal
MesoWest KEITH1 , Maxwell, NE 87 °F 84 °F - - North  at  - 0.00 in / hr 2757 ft 7:00 PM CDT MADIS
Hershey Northeast, North Platte, NE 85.4 °F 89 °F 68 °F 57% SE  at  2.0 mph 0.00 in / hr 2867 ft 8:00 PM CDT Normal
MesoWest BRADY1 , Brady, NE 87 °F 84 °F - - North  at  - 0.00 in / hr 2649 ft 7:00 PM CDT MADIS

Show More Stations Show Fewer Stations